createdAt,value
2022-11-15T00:02:02.086Z,3.65
2022-11-15T00:04:48.552Z,3.64
2022-11-15T00:07:54.726Z,3.65
2022-11-15T00:10:42.738Z,3.59
2022-11-15T00:13:29.593Z,3.58
2022-11-15T00:16:15.990Z,3.58
2022-11-15T00:19:02.355Z,3.43
2022-11-15T00:21:50.182Z,3.47
2022-11-15T00:24:36.974Z,3.48
2022-11-15T00:27:24.437Z,3.44
2022-11-15T00:30:10.740Z,3.54
2022-11-15T00:32:57.190Z,3.58
2022-11-15T00:35:43.185Z,3.63
2022-11-15T00:38:33.821Z,3.32
2022-11-15T00:41:19.742Z,3.37
2022-11-15T00:44:06.198Z,3.65
2022-11-15T00:46:51.994Z,3.41
2022-11-15T00:49:38.152Z,3.36
2022-11-15T00:52:25.699Z,3.55
2022-11-15T00:55:16.177Z,3.29
2022-11-15T00:58:02.333Z,3.30
2022-11-15T01:00:48.650Z,3.36
2022-11-15T01:03:35.981Z,3.26
2022-11-15T01:06:21.942Z,3.22
2022-11-15T01:09:09.109Z,3.10
2022-11-15T01:11:54.965Z,3.22
2022-11-15T01:14:42.354Z,3.09
2022-11-15T01:17:28.444Z,3.05
2022-11-15T01:20:14.526Z,3.05
2022-11-15T01:23:00.720Z,3.09
2022-11-15T01:25:46.888Z,3.15
2022-11-15T01:28:33.596Z,3.05
2022-11-15T01:31:20.380Z,2.89
2022-11-15T01:34:06.661Z,3.05
2022-11-15T01:36:52.848Z,3.03
2022-11-15T01:39:39.555Z,2.98
2022-11-15T01:42:27.429Z,3.07
2022-11-15T01:45:16.196Z,3.14
2022-11-15T01:48:08.466Z,2.92
2022-11-15T01:50:54.613Z,2.97
2022-11-15T01:53:42.121Z,3.16
2022-11-15T01:56:28.885Z,2.87
2022-11-15T01:59:16.087Z,3.03
2022-11-15T02:02:03.543Z,3.37
2022-11-15T02:04:49.870Z,3.06
2022-11-15T02:07:38.838Z,3.23
2022-11-15T02:10:25.159Z,3.26
2022-11-15T02:13:12.023Z,3.42
2022-11-15T02:16:14.926Z,3.50
2022-11-15T02:19:06.373Z,3.55
2022-11-15T02:22:12.820Z,3.43
2022-11-15T02:24:59.194Z,3.52
2022-11-15T02:27:52.140Z,3.56
2022-11-15T02:31:11.123Z,3.61
2022-11-15T02:34:07.273Z,3.65
2022-11-15T02:37:11.364Z,3.73
2022-11-15T02:39:57.454Z,3.73
2022-11-15T02:43:08.939Z,3.59
2022-11-15T02:46:20.930Z,3.49
2022-11-15T02:49:07.045Z,3.53
2022-11-15T02:51:52.827Z,3.50
2022-11-15T02:54:38.969Z,3.01
2022-11-15T02:57:37.431Z,2.96
2022-11-15T03:00:23.421Z,3.05
2022-11-15T03:03:16.656Z,3.01
2022-11-15T03:06:29.548Z,2.93
2022-11-15T03:09:20.867Z,2.88
2022-11-15T03:12:14.661Z,2.94
2022-11-15T03:15:07.954Z,2.82
2022-11-15T03:18:06.346Z,2.74
2022-11-15T03:20:52.507Z,2.83
2022-11-15T03:23:39.395Z,2.54
2022-11-15T03:26:25.317Z,2.42
2022-11-15T03:29:15.583Z,2.54
2022-11-15T03:32:13.023Z,2.63
2022-11-15T03:34:59.777Z,2.46
2022-11-15T03:37:46.004Z,2.54
2022-11-15T03:40:34.997Z,2.46
2022-11-15T03:43:39.826Z,2.38
2022-11-15T03:46:29.694Z,2.43
2022-11-15T03:49:16.716Z,2.50
2022-11-15T03:52:05.725Z,2.38
2022-11-15T03:54:55.654Z,2.52
2022-11-15T03:57:41.509Z,2.39
2022-11-15T04:00:27.987Z,2.32
2022-11-15T04:03:14.414Z,2.29
2022-11-15T04:06:00.752Z,2.61
2022-11-15T04:08:48.218Z,2.42
2022-11-15T04:11:34.192Z,2.21
2022-11-15T04:14:20.969Z,2.30
2022-11-15T04:17:06.798Z,2.35
2022-11-15T04:20:11.901Z,2.28
2022-11-15T04:23:17.202Z,2.22
2022-11-15T04:26:03.801Z,2.21
2022-11-15T04:29:08.332Z,2.14
2022-11-15T04:31:54.534Z,2.33
2022-11-15T04:34:40.780Z,2.65
2022-11-15T04:37:26.943Z,3.24
2022-11-15T04:40:12.901Z,3.53
2022-11-15T04:43:03.655Z,3.36
2022-11-15T04:45:50.170Z,3.30
2022-11-15T04:48:36.235Z,3.17
2022-11-15T04:51:22.654Z,3.61
2022-11-15T04:54:08.724Z,3.60
2022-11-15T04:56:54.579Z,3.63
2022-11-15T04:59:40.541Z,3.17
2022-11-15T05:02:47.433Z,2.99
2022-11-15T05:05:34.114Z,3.62
2022-11-15T05:08:20.060Z,3.52
2022-11-15T05:11:06.216Z,3.47
2022-11-15T05:13:52.219Z,3.35
2022-11-15T05:16:38.698Z,3.64
2022-11-15T05:19:24.882Z,3.74
2022-11-15T05:22:10.937Z,3.49
2022-11-15T05:24:57.212Z,3.53
2022-11-15T05:27:43.633Z,3.61
2022-11-15T05:30:29.616Z,3.86
2022-11-15T16:00:43.281Z,7.19
2022-11-15T16:03:10.665Z,7.47
2022-11-15T16:05:38.410Z,7.49
2022-11-15T16:08:19.486Z,7.46
2022-11-15T16:10:47.435Z,7.58
2022-11-15T16:13:14.835Z,7.34
2022-11-15T16:15:42.432Z,7.25
2022-11-15T16:18:10.146Z,7.20
2022-11-15T16:20:38.808Z,6.92
2022-11-15T16:23:09.554Z,7.08
2022-11-15T16:25:43.909Z,7.18
2022-11-15T16:28:31.067Z,7.00
2022-11-15T16:31:02.764Z,7.06
2022-11-15T16:33:30.679Z,7.06
2022-11-15T16:35:58.551Z,7.17
2022-11-15T16:38:26.150Z,7.00
2022-11-15T16:40:53.520Z,7.18
2022-11-15T16:43:20.923Z,7.03
2022-11-15T16:45:48.437Z,7.28
2022-11-15T16:48:25.998Z,7.38
2022-11-15T16:50:59.782Z,7.21
2022-11-15T16:53:28.370Z,7.16
2022-11-15T16:55:56.004Z,6.80
2022-11-15T16:58:23.950Z,6.82
2022-11-15T17:00:52.768Z,6.43
2022-11-15T17:03:20.603Z,6.68
2022-11-15T17:05:47.922Z,6.75
2022-11-15T17:08:15.537Z,6.71
2022-11-15T17:10:43.226Z,6.61
2022-11-15T17:13:12.621Z,6.65
2022-11-15T17:15:40.228Z,6.52
2022-11-15T17:18:09.234Z,6.54
2022-11-15T17:20:37.510Z,6.62
2022-11-15T17:23:07.206Z,6.36
2022-11-15T17:25:34.765Z,6.21
2022-11-15T17:28:02.135Z,6.37
2022-11-15T17:30:29.728Z,6.40
2022-11-15T17:32:57.325Z,6.39
2022-11-15T17:35:24.738Z,6.48
2022-11-15T17:37:53.385Z,6.22
2022-11-15T17:40:20.810Z,6.08
2022-11-15T17:42:48.305Z,6.29
2022-11-15T17:45:15.700Z,6.30
2022-11-15T17:47:43.035Z,6.48
2022-11-15T17:50:10.975Z,6.41
2022-11-15T17:52:38.464Z,6.47
2022-11-15T17:55:06.230Z,6.48
2022-11-15T17:57:34.700Z,6.56
2022-11-15T18:00:02.302Z,6.42
2022-11-15T18:02:31.595Z,6.48
2022-11-15T18:04:59.111Z,6.61
2022-11-15T18:07:26.459Z,6.44
2022-11-15T18:09:54.113Z,6.35
2022-11-15T18:12:22.294Z,6.32
2022-11-15T18:14:51.872Z,6.34
2022-11-15T18:17:20.700Z,6.46
2022-11-15T18:19:48.947Z,6.44
2022-11-15T18:22:16.564Z,6.26
2022-11-15T18:24:45.069Z,6.48
2022-11-15T18:27:14.498Z,6.65
2022-11-15T18:29:42.384Z,6.39
2022-11-15T18:32:12.704Z,6.37
2022-11-15T18:34:41.058Z,6.48
2022-11-15T18:37:08.537Z,6.27
2022-11-15T18:39:36.082Z,6.40
2022-11-15T18:42:05.694Z,6.37
2022-11-15T18:44:34.648Z,6.28
2022-11-15T18:47:01.985Z,6.51
2022-11-15T18:49:29.774Z,6.38
2022-11-15T18:51:57.223Z,6.36
2022-11-15T18:54:29.781Z,6.05
2022-11-15T18:56:58.923Z,6.18
2022-11-15T18:59:27.900Z,6.42
2022-11-15T19:01:56.169Z,6.34
2022-11-15T19:04:23.738Z,6.22
2022-11-15T19:06:53.617Z,6.19
2022-11-15T19:09:21.427Z,6.28
2022-11-15T19:11:49.280Z,6.41
2022-11-15T19:14:24.425Z,6.56
2022-11-15T19:16:52.911Z,6.48
2022-11-15T19:19:24.788Z,6.45
2022-11-15T19:21:54.266Z,6.45
2022-11-15T19:24:21.770Z,6.22
2022-11-15T19:26:49.106Z,6.39
2022-11-15T19:29:17.411Z,6.57
2022-11-15T19:31:45.025Z,6.37
2022-11-15T19:34:13.074Z,6.26
2022-11-15T19:36:41.638Z,6.36
2022-11-15T19:39:10.297Z,6.48
2022-11-15T19:41:39.702Z,6.32
2022-11-15T19:44:07.255Z,6.26
2022-11-15T19:46:35.431Z,6.44
2022-11-15T19:49:02.874Z,6.47
2022-11-15T19:51:33.113Z,6.36
2022-11-15T19:54:03.793Z,6.36
2022-11-15T19:56:31.207Z,6.44
2022-11-15T19:58:58.623Z,6.47
2022-11-15T20:01:27.439Z,6.58
2022-11-15T20:03:55.680Z,6.38
2022-11-15T20:06:33.313Z,6.40
2022-11-15T20:09:00.850Z,6.53
2022-11-15T20:11:28.217Z,6.45
2022-11-15T20:13:59.796Z,6.56
2022-11-15T20:16:29.386Z,6.47
2022-11-15T20:18:57.200Z,6.29
2022-11-15T20:21:25.370Z,6.33
2022-11-15T20:23:52.910Z,6.35
2022-11-15T20:26:20.597Z,6.31
2022-11-15T20:28:50.679Z,6.44
2022-11-15T20:31:18.314Z,6.22
2022-11-15T20:33:46.547Z,6.39
2022-11-15T20:36:14.671Z,6.30
2022-11-15T20:38:44.525Z,6.19
2022-11-15T20:41:12.295Z,6.18
2022-11-15T20:43:43.767Z,6.32
2022-11-15T20:46:11.810Z,6.35
2022-11-15T20:48:39.660Z,6.46
2022-11-15T20:51:11.873Z,6.45
2022-11-15T20:53:39.699Z,6.47
2022-11-15T20:56:08.850Z,6.41
2022-11-15T20:58:36.848Z,6.43
2022-11-15T21:01:05.336Z,6.35
2022-11-15T21:03:33.446Z,6.41
2022-11-15T21:06:01.829Z,6.39
2022-11-15T21:08:49.364Z,6.47
2022-11-15T21:11:35.663Z,6.31
2022-11-15T21:14:08.759Z,6.50
2022-11-15T21:16:37.475Z,6.47
2022-11-15T21:19:05.771Z,6.45
2022-11-15T21:21:34.061Z,6.51
2022-11-15T21:24:06.442Z,6.46
2022-11-15T21:26:34.435Z,6.56
2022-11-15T21:29:02.085Z,6.42
2022-11-15T21:31:29.859Z,6.40
2022-11-15T21:33:57.342Z,6.51
2022-11-15T21:36:25.381Z,6.48
2022-11-15T21:38:53.831Z,6.39
2022-11-15T21:41:21.282Z,6.43
2022-11-15T21:43:48.835Z,6.33
2022-11-15T21:46:16.154Z,6.42
2022-11-15T21:48:43.637Z,6.51
2022-11-15T21:51:11.403Z,6.58
2022-11-15T21:53:40.412Z,6.53
2022-11-15T21:56:08.078Z,6.44
2022-11-15T22:02:14.585Z,6.47
2022-11-15T22:04:42.158Z,6.50
2022-11-15T22:07:09.570Z,6.50
2022-11-15T22:09:37.838Z,6.47
2022-11-15T22:12:05.574Z,6.39
2022-11-15T22:14:36.149Z,6.43
2022-11-15T22:17:04.457Z,6.39
2022-11-15T22:19:32.074Z,6.66
2022-11-15T22:22:00.051Z,6.63
2022-11-15T22:24:27.848Z,6.52
2022-11-15T22:26:55.307Z,6.57
2022-11-15T22:29:24.160Z,6.43
2022-11-15T22:31:51.652Z,6.42
2022-11-15T22:34:19.220Z,6.47
2022-11-15T22:37:18.249Z,6.70
2022-11-15T22:39:35.133Z,6.56
2022-11-15T22:42:02.590Z,6.69
2022-11-15T22:44:30.192Z,6.41
2022-11-15T22:46:58.088Z,6.49
2022-11-15T22:49:25.517Z,6.40
2022-11-15T22:51:53.054Z,6.51
2022-11-15T22:54:20.758Z,6.44
2022-11-15T22:56:48.196Z,6.51
2022-11-15T22:59:15.803Z,6.71
2022-11-15T23:01:43.315Z,6.49
2022-11-15T23:04:10.832Z,6.47
2022-11-15T23:06:39.107Z,6.51
2022-11-15T23:09:07.762Z,6.47
2022-11-15T23:11:53.846Z,6.28
2022-11-15T23:14:21.430Z,6.52
2022-11-15T23:16:48.932Z,6.71
2022-11-15T23:19:18.918Z,6.69
2022-11-15T23:22:06.407Z,6.71
2022-11-15T23:24:35.351Z,6.90
2022-11-15T23:27:03.806Z,6.62
2022-11-15T23:29:32.137Z,6.73
2022-11-15T23:32:18.408Z,6.74
2022-11-15T23:34:46.413Z,6.63
2022-11-15T23:37:14.403Z,6.52
2022-11-15T23:39:42.061Z,6.54
2022-11-15T23:42:19.967Z,6.56
2022-11-15T23:44:50.124Z,6.56
2022-11-15T23:47:18.580Z,6.53
2022-11-15T23:49:46.008Z,6.59
2022-11-15T23:52:15.620Z,6.64
2022-11-15T23:54:43.112Z,6.68
2022-11-15T23:57:12.579Z,6.74
2022-11-15T23:59:46.123Z,6.68
